Time;durP1;ratioP1;P1;durP2;ratioP2;P2;SDS_P1;SDS_P2;PMS_P1;PMS_P2;Temp;Humidity;BMP_temperature;BMP_pressure;BME280_temperature;BME280_humidity;BME280_pressure;Samples;Min_cycle;Max_cycle;Signal;HPM_P1;HPM_P2
2023/08/18 00:00:54;;;;;;;;;;;21.60;99.90;;;;;;5103652;28;19994;-72
2023/08/18 00:03:21;;;;;;;;;;;21.20;99.90;;;;;;5100755;28;19915;-72
2023/08/18 00:05:48;;;;;;;;;;;20.80;99.90;;;;;;5103551;28;20026;-74
2023/08/18 00:08:15;;;;;;;;;;;21.00;99.90;;;;;;5102520;28;20001;-72
2023/08/18 00:10:41;;;;;;;;;;;20.40;99.90;;;;;;5105616;28;19903;-72
2023/08/18 00:13:08;;;;;;;;;;;20.10;99.90;;;;;;5114432;28;19941;-73
2023/08/18 00:15:35;;;;;;;;;;;20.20;99.90;;;;;;5104139;28;19912;-72
2023/08/18 00:18:02;;;;;;;;;;;20.30;99.90;;;;;;5093897;28;19904;-72
2023/08/18 00:20:29;;;;;;;;;;;20.40;99.90;;;;;;5072652;28;19951;-72
2023/08/18 00:22:55;;;;;;;;;;;20.40;99.90;;;;;;5091869;28;19912;-72
2023/08/18 00:25:22;;;;;;;;;;;20.80;99.90;;;;;;5094553;28;19930;-73
2023/08/18 00:27:49;;;;;;;;;;;20.00;99.90;;;;;;5097018;28;19912;-73
2023/08/18 00:30:15;;;;;;;;;;;19.60;99.90;;;;;;5092590;28;20361;-73
2023/08/18 00:32:42;;;;;;;;;;;18.90;99.90;;;;;;5092354;28;19920;-72
2023/08/18 00:35:09;;;;;;;;;;;18.00;99.90;;;;;;5091881;28;19922;-74
2023/08/18 00:37:35;;;;;;;;;;;18.70;99.90;;;;;;5092546;28;19931;-73
2023/08/18 00:40:02;;;;;;;;;;;18.60;99.90;;;;;;5092209;28;19912;-72
2023/08/18 00:42:29;;;;;;;;;;;19.40;99.90;;;;;;5091984;28;19911;-72
2023/08/18 00:44:55;;;;;;;;;;;20.10;99.90;;;;;;5092213;28;19951;-73
2023/08/18 00:47:23;;;;;;;;;;;20.50;99.90;;;;;;5092505;28;19904;-73
2023/08/18 00:49:50;;;;;;;;;;;20.20;99.90;;;;;;5091987;28;19954;-73
2023/08/18 00:52:18;;;;;;;;;;;20.00;99.90;;;;;;5092017;28;19907;-71
2023/08/18 00:54:45;;;;;;;;;;;20.70;99.90;;;;;;5086629;28;19931;-72
2023/08/18 00:57:12;;;;;;;;;;;20.90;99.90;;;;;;5091299;28;20002;-73
2023/08/18 00:59:39;;;;;;;;;;;21.10;99.90;;;;;;5092141;28;19908;-72
2023/08/18 01:02:06;;;;;;;;;;;20.40;99.90;;;;;;5092260;28;19990;-72
2023/08/18 01:04:32;;;;;;;;;;;21.30;99.90;;;;;;5091539;28;19915;-72
2023/08/18 01:06:59;;;;;;;;;;;21.80;99.90;;;;;;5092391;28;19908;-73
2023/08/18 01:09:26;;;;;;;;;;;22.00;99.90;;;;;;5092405;28;19908;-72
2023/08/18 01:12:00;;;;;;;;;;;22.00;96.20;;;;;;5091836;28;20274;-72
2023/08/18 01:14:33;;;;;;;;;;;20.90;92.70;;;;;;5092040;28;20277;-71
2023/08/18 01:17:05;;;;;;;;;;;20.60;94.50;;;;;;5099956;28;19957;-71
2023/08/18 01:19:31;;;;;;;;;;;20.00;96.00;;;;;;5091333;28;20329;-71
2023/08/18 01:21:58;;;;;;;;;;;20.20;98.80;;;;;;5091159;28;20364;-72
2023/08/18 01:24:26;;;;;;;;;;;21.40;96.80;;;;;;5095466;28;19919;-73
2023/08/18 01:26:53;;;;;;;;;;;21.70;90.00;;;;;;5095124;28;19988;-69
2023/08/18 01:29:21;;;;;;;;;;;22.00;87.70;;;;;;5096182;28;19904;-72
2023/08/18 01:31:49;;;;;;;;;;;21.50;85.20;;;;;;5095884;28;19999;-69
2023/08/18 01:34:17;;;;;;;;;;;21.40;82.90;;;;;;5095602;28;19923;-69
2023/08/18 01:36:45;;;;;;;;;;;20.70;87.80;;;;;;5095815;28;19908;-71
2023/08/18 01:39:13;;;;;;;;;;;20.60;92.40;;;;;;5095927;28;19911;-73
2023/08/18 01:41:40;;;;;;;;;;;20.40;92.40;;;;;;5095474;28;19955;-72
2023/08/18 01:44:08;;;;;;;0.37;0.30;;;20.10;91.40;;;;;;5095142;28;20438;-69
2023/08/18 01:46:35;;;;;;;1.30;0.37;;;20.30;85.10;;;;;;5096472;28;20194;-69
2023/08/18 01:49:03;;;;;;;0.33;0.33;;;20.40;85.90;;;;;;5096466;28;20178;-68
2023/08/18 01:51:30;;;;;;;0.40;0.40;;;20.20;86.60;;;;;;5096358;28;20178;-69
2023/08/18 01:53:57;;;;;;;0.27;0.27;;;20.90;91.10;;;;;;5096646;28;20770;-73
2023/08/18 01:56:25;;;;;;;1.93;0.30;;;21.30;82.70;;;;;;5096442;28;20701;-71
2023/08/18 01:58:52;;;;;;;0.27;0.27;;;20.90;75.60;;;;;;5096421;28;20678;-69
2023/08/18 02:01:20;;;;;;;1.20;0.30;;;21.40;73.90;;;;;;5096364;28;20202;-69
2023/08/18 02:03:47;;;;;;;0.30;0.30;;;21.80;70.40;;;;;;5096380;28;20175;-73
2023/08/18 02:06:14;;;;;;;4.13;0.30;;;21.90;71.70;;;;;;5094930;28;20543;-69
2023/08/18 02:08:42;;;;;;;0.97;0.30;;;21.50;63.30;;;;;;5096014;28;20231;-69
2023/08/18 02:11:09;;;;;;;0.37;0.33;;;21.00;57.30;;;;;;5096328;28;20218;-70
2023/08/18 02:13:37;;;;;;;0.73;0.40;;;21.20;55.90;;;;;;5096289;28;20218;-70
2023/08/18 02:16:04;;;;;;;1.10;0.40;;;21.40;56.90;;;;;;5096421;28;20258;-70
2023/08/18 02:18:34;;;;;;;0.33;0.33;;;21.60;58.40;;;;;;5095652;28;20222;-71
2023/08/18 02:21:02;;;;;;;0.23;0.23;;;21.90;57.80;;;;;;5096067;28;20187;-69
2023/08/18 02:23:30;;;;;;;0.30;0.30;;;21.60;61.50;;;;;;5095841;28;20180;-72
2023/08/18 02:26:05;;;;;;;0.53;0.33;;;21.70;60.00;;;;;;5095928;28;20185;-71
2023/08/18 02:28:33;;;;;;;0.30;0.30;;;21.60;51.90;;;;;;5095654;28;20188;-72
2023/08/18 02:31:05;;;;;;;2.83;0.60;;;21.60;49.10;;;;;;5095797;28;20702;-69
2023/08/18 02:33:34;;;;;;;0.47;0.40;;;21.30;46.60;;;;;;5094850;28;20214;-71
2023/08/18 02:36:01;;;;;;;0.80;0.67;;;21.20;43.20;;;;;;5095525;28;20637;-72
2023/08/18 02:38:30;;;;;;;0.53;0.47;;;21.20;43.20;;;;;;5095340;28;20163;-71
2023/08/18 02:40:58;;;;;;;0.77;0.40;;;21.10;42.70;;;;;;5095031;28;20175;-69
2023/08/18 02:43:26;;;;;;;0.40;0.40;;;21.40;42.40;;;;;;5093957;28;20183;-69
2023/08/18 02:45:57;;;;;;;5.53;0.40;;;21.70;43.30;;;;;;5094737;28;20634;-70
2023/08/18 02:48:28;;;;;;;0.80;0.40;;;22.00;42.90;;;;;;5077727;28;20187;-70
2023/08/18 02:51:10;;;;;;;0.40;0.40;;;22.00;42.70;;;;;;5093929;28;20177;-70
2023/08/18 02:53:38;;;;;;;0.80;0.70;;;22.00;43.00;;;;;;5092190;28;20218;-70
2023/08/18 02:56:05;;;;;;;1.43;0.40;;;21.70;45.20;;;;;;5094220;28;20589;-70
2023/08/18 02:58:33;;;;;;;0.47;0.37;;;21.60;45.00;;;;;;5093843;28;20265;-70
2023/08/18 03:01:06;;;;;;;2.30;0.50;;;21.60;45.40;;;;;;5093183;28;20254;-70
2023/08/18 03:03:34;;;;;;;1.80;0.50;;;21.10;44.40;;;;;;5093943;28;20170;-70
2023/08/18 03:06:07;;;;;;;0.50;0.40;;;20.40;45.50;;;;;;5094030;28;20636;-70
2023/08/18 03:08:36;;;;;;;2.43;0.50;;;20.40;48.60;;;;;;5093264;28;20240;-70
2023/08/18 03:11:04;;;;;;;0.50;0.33;;;20.30;49.80;;;;;;5091784;28;20236;-70
2023/08/18 03:13:32;;;;;;;0.70;0.30;;;20.80;48.40;;;;;;5093674;28;20206;-69
2023/08/18 03:15:59;;;;;;;0.30;0.30;;;20.60;44.70;;;;;;5091926;28;20241;-69
2023/08/18 03:18:27;;;;;;;0.30;0.30;;;20.30;47.10;;;;;;5093364;28;20291;-69
2023/08/18 03:21:03;;;;;;;0.40;0.40;;;19.90;47.90;;;;;;5093118;28;20587;-69
2023/08/18 03:23:30;;;;;;;0.33;0.33;;;19.50;50.30;;;;;;5092959;28;20206;-70
2023/08/18 03:26:05;;;;;;;0.40;0.40;;;19.60;49.70;;;;;;5094320;28;20187;-70
2023/08/18 03:28:34;;;;;;;2.23;0.30;;;19.80;53.00;;;;;;5094613;28;20192;-70
2023/08/18 03:31:03;;;;;;;2.27;0.50;;;19.60;52.70;;;;;;5092853;28;20178;-70
2023/08/18 03:33:30;;;;;;;0.80;0.40;;;19.40;52.90;;;;;;5093067;28;20311;-70
2023/08/18 03:35:58;;;;;;;2.73;0.50;;;20.00;50.90;;;;;;5094437;28;20655;-71
2023/08/18 03:38:26;;;;;;;0.70;0.40;;;20.50;49.60;;;;;;5094519;28;20184;-69
2023/08/18 03:41:03;;;;;;;0.70;0.50;;;20.60;48.70;;;;;;5094970;28;20239;-70
2023/08/18 03:43:32;;;;;;;0.40;0.40;;;21.00;48.60;;;;;;5094106;28;20187;-70
2023/08/18 03:46:01;;;;;;;0.70;0.40;;;21.50;45.50;;;;;;5093954;28;20179;-71
2023/08/18 03:48:29;;;;;;;0.43;0.40;;;21.30;41.80;;;;;;5093953;28;20171;-70
2023/08/18 03:50:56;;;;;;;2.33;0.60;;;21.20;40.70;;;;;;5093701;28;20187;-70
2023/08/18 03:53:23;;;;;;;0.77;0.40;;;20.30;34.70;;;;;;5094008;28;20260;-70
2023/08/18 03:55:59;;;;;;;1.43;0.60;;;20.10;35.00;;;;;;5093923;28;20167;-69
2023/08/18 03:58:26;;;;;;;2.37;0.57;;;19.90;37.20;;;;;;5093874;28;20666;-70
2023/08/18 04:01:06;;;;;;;1.73;0.50;;;19.90;37.80;;;;;;5093834;28;20233;-70
2023/08/18 04:03:38;;;;;;;1.50;0.53;;;20.00;38.60;;;;;;5093791;28;20511;-72
2023/08/18 04:06:06;;;;;;;2.33;0.50;;;20.10;40.30;;;;;;5094407;28;20639;-71
2023/08/18 04:08:42;;;;;;;2.40;0.57;;;20.20;38.80;;;;;;5093827;28;20639;-70
2023/08/18 04:11:12;;;;;;;0.50;0.50;;;20.30;38.60;;;;;;5093755;28;20573;-71
2023/08/18 04:13:40;;;;;;;3.20;0.63;;;20.00;39.40;;;;;;5094069;28;20211;-70
2023/08/18 04:16:07;;;;;;;1.40;0.60;;;20.10;37.80;;;;;;5093555;28;20664;-71
2023/08/18 04:18:34;;;;;;;1.00;0.47;;;19.80;34.60;;;;;;5091967;28;20680;-70
2023/08/18 04:21:02;;;;;;;0.60;0.60;;;19.40;34.20;;;;;;5093712;28;20624;-70
2023/08/18 04:23:34;;;;;;;1.43;0.60;;;19.10;37.20;;;;;;5107988;28;20532;-70
2023/08/18 04:26:01;;;;;;;6.67;0.50;;;19.10;38.20;;;;;;5113893;28;20225;-70
2023/08/18 04:28:29;;;;;;;1.60;0.50;;;19.00;37.80;;;;;;5095410;28;20631;-69
2023/08/18 04:30:57;;;;;;;3.43;0.63;;;19.00;37.00;;;;;;5113700;28;20236;-70
2023/08/18 04:33:24;;;;;;;0.40;0.40;;;18.80;36.90;;;;;;5113719;28;20214;-70
2023/08/18 04:35:52;;;;;;;1.53;0.60;;;18.60;35.20;;;;;;5113852;28;20171;-71
2023/08/18 04:38:19;;;;;;;2.13;0.70;;;19.00;37.50;;;;;;5113695;28;20174;-69
2023/08/18 04:41:00;;;;;;;1.43;0.60;;;19.10;34.70;;;;;;5113646;28;20592;-70
2023/08/18 04:43:29;;;;;;;2.77;0.53;;;18.70;35.50;;;;;;5116404;27;20208;-70
2023/08/18 04:45:57;;;;;;;3.13;0.70;;;18.80;36.50;;;;;;5124474;27;20665;-69
2023/08/18 04:48:25;;;;;;;0.70;0.53;;;18.60;35.30;;;;;;5121881;27;20239;-70
2023/08/18 04:50:52;;;;;;;3.73;1.53;;;18.60;34.60;;;;;;5105018;27;20182;-70
2023/08/18 04:53:19;;;;;;;2.57;0.50;;;18.40;32.80;;;;;;5115835;27;20218;-71
2023/08/18 04:55:47;;;;;;;0.60;0.57;;;18.50;34.70;;;;;;5112955;28;20190;-70
2023/08/18 04:58:15;;;;;;;1.77;0.70;;;18.70;37.00;;;;;;5112761;28;20188;-72
2023/08/18 05:00:46;;;;;;;0.70;0.50;;;18.50;35.90;;;;;;5122037;28;20189;-69
2023/08/18 05:03:13;;;;;;;1.07;0.50;;;18.40;35.60;;;;;;5134211;28;20173;-72
2023/08/18 05:05:59;;;;;;;5.80;1.40;;;18.40;36.30;;;;;;5134217;28;20174;-70
2023/08/18 05:08:33;;;;;;;2.80;0.70;;;18.40;38.10;;;;;;5134087;28;20178;-71
2023/08/18 05:11:08;;;;;;;1.53;0.60;;;18.30;38.00;;;;;;5133985;28;20177;-70
2023/08/18 05:13:37;;;;;;;1.33;0.50;;;18.30;40.50;;;;;;5133842;28;20205;-70
2023/08/18 05:16:05;;;;;;;1.50;0.50;;;18.20;36.40;;;;;;5133949;28;20177;-71
2023/08/18 05:18:33;;;;;;;1.50;0.50;;;18.20;37.90;;;;;;5119064;28;20233;-70
2023/08/18 05:21:02;;;;;;;2.57;0.60;;;18.20;39.50;;;;;;5092248;28;20900;-68
2023/08/18 05:23:31;;;;;;;1.53;0.60;;;18.30;38.30;;;;;;5111584;28;20303;-71
2023/08/18 05:25:59;;;;;;;1.93;0.50;;;18.40;40.70;;;;;;5111944;28;20167;-71
2023/08/18 05:28:32;;;;;;;0.87;0.70;;;18.30;38.90;;;;;;5110687;28;20170;-70
2023/08/18 05:30:59;;;;;;;1.23;0.50;;;18.30;40.30;;;;;;5111871;28;20241;-71
2023/08/18 05:33:27;;;;;;;2.47;0.50;;;18.40;40.30;;;;;;5111602;28;20354;-71
2023/08/18 05:35:58;;;;;;;0.40;0.40;;;18.20;38.80;;;;;;5110683;28;20182;-71
2023/08/18 05:38:27;;;;;;;3.30;0.50;;;18.20;40.00;;;;;;5116624;28;20207;-71
2023/08/18 05:41:03;;;;;;;1.03;0.50;;;18.10;39.00;;;;;;5111813;28;20604;-69
2023/08/18 05:43:30;;;;;;;2.93;0.63;;;18.10;40.70;;;;;;5107222;28;20177;-70
2023/08/18 05:45:58;;;;;;;2.60;0.60;;;18.20;41.30;;;;;;5111919;28;20171;-70
2023/08/18 05:48:25;;;;;;;0.60;0.50;;;18.30;42.30;;;;;;5112078;28;20261;-70
2023/08/18 05:50:52;;;;;;;1.17;0.70;;;18.20;41.30;;;;;;5111423;28;20214;-71
2023/08/18 05:53:20;;;;;;;2.03;0.50;;;18.40;42.90;;;;;;5093472;28;20217;-70
2023/08/18 05:55:48;;;;;;;1.43;0.43;;;18.20;43.90;;;;;;5112331;28;20200;-70
2023/08/18 05:58:15;;;;;;;0.30;0.30;;;18.10;43.80;;;;;;5113190;28;20193;-71
2023/08/18 06:00:43;;;;;;;0.50;0.50;;;17.70;45.80;;;;;;5114823;28;20179;-70
2023/08/18 06:03:10;;;;;;;2.53;0.60;;;17.70;48.00;;;;;;5112636;28;20336;-71
2023/08/18 06:05:38;;;;;;;2.70;1.60;;;17.50;49.00;;;;;;5112796;28;20544;-70
2023/08/18 06:08:05;;;;;;;3.57;2.40;;;17.30;49.70;;;;;;5113026;28;20183;-71
2023/08/18 06:10:33;;;;;;;2.07;1.43;;;17.00;50.80;;;;;;5115892;28;20185;-71
2023/08/18 06:13:00;;;;;;;3.20;2.00;;;17.00;52.10;;;;;;5098295;28;20221;-71
2023/08/18 06:15:27;;;;;;;1.67;1.00;;;17.00;52.50;;;;;;5115915;28;20200;-70
2023/08/18 06:17:55;;;;;;;0.70;0.40;;;16.80;52.00;;;;;;5116152;28;20190;-71
2023/08/18 06:20:22;;;;;;;0.50;0.50;;;16.70;52.10;;;;;;5099052;28;20241;-71
2023/08/18 06:22:49;;;;;;;0.70;0.40;;;16.60;54.00;;;;;;5104924;28;20175;-70
2023/08/18 06:25:17;;;;;;;0.97;0.67;;;16.40;54.10;;;;;;5116611;28;20175;-71
2023/08/18 06:27:44;;;;;;;0.60;0.40;;;16.50;56.20;;;;;;5116451;28;20528;-71
2023/08/18 06:30:12;;;;;;;2.20;0.47;;;16.60;57.50;;;;;;5116764;28;20210;-71
2023/08/18 06:32:40;;;;;;;1.63;0.50;;;16.60;56.20;;;;;;5115326;28;20294;-70
2023/08/18 06:35:08;;;;;;;0.50;0.40;;;16.50;57.10;;;;;;5116208;28;20275;-69
2023/08/18 06:37:35;;;;;;;2.60;0.50;;;16.40;56.30;;;;;;5115769;28;20551;-69
2023/08/18 06:40:02;;;;;;;1.17;0.50;;;16.30;55.80;;;;;;5115907;28;20560;-69
2023/08/18 06:42:30;;;;;;;0.50;0.50;;;16.20;56.90;;;;;;5115572;28;20257;-69
2023/08/18 06:44:57;;;;;;;0.80;0.40;;;16.20;55.90;;;;;;5115824;28;20253;-70
2023/08/18 06:47:24;;;;;;;0.90;0.47;;;16.20;58.10;;;;;;5116417;28;20178;-69
2023/08/18 06:49:52;;;;;;;0.43;0.43;;;16.20;57.80;;;;;;5115720;28;20174;-69
2023/08/18 06:52:19;;;;;;;0.40;0.40;;;16.20;58.60;;;;;;5115180;28;20226;-70
2023/08/18 06:54:47;;;;;;;0.53;0.40;;;16.10;57.60;;;;;;5123352;27;20205;-70
2023/08/18 06:57:15;;;;;;;0.50;0.40;;;16.10;58.30;;;;;;5133231;27;20182;-69
2023/08/18 06:59:42;;;;;;;0.93;0.50;;;16.00;56.20;;;;;;5136258;27;20548;-70
2023/08/18 07:02:09;;;;;;;3.00;0.50;;;15.80;55.90;;;;;;5136240;27;20198;-70
2023/08/18 07:04:37;;;;;;;0.60;0.60;;;15.60;56.30;;;;;;5117272;27;20179;-70
2023/08/18 07:07:04;;;;;;;0.73;0.60;;;15.50;57.40;;;;;;5115329;28;20639;-70
2023/08/18 07:09:31;;;;;;;0.93;0.50;;;15.40;58.30;;;;;;5115411;28;20710;-69
2023/08/18 07:12:00;;;;;;;0.77;0.60;;;15.30;59.20;;;;;;5115457;28;20195;-69
2023/08/18 07:14:27;;;;;;;2.57;0.60;;;15.30;59.80;;;;;;5114563;28;20241;-69
2023/08/18 07:16:55;;;;;;;0.73;0.63;;;15.10;61.90;;;;;;5115307;28;20203;-69
2023/08/18 07:19:22;;;;;;;0.83;0.50;;;15.10;64.40;;;;;;5114115;28;20225;-69
2023/08/18 07:21:51;;;;;;;0.63;0.50;;;15.00;66.50;;;;;;5114572;28;20194;-70
2023/08/18 07:24:18;;;;;;;0.57;0.50;;;14.80;68.30;;;;;;5097186;28;20182;-70
2023/08/18 07:26:45;;;;;;;0.90;0.50;;;14.80;70.90;;;;;;5114984;28;20253;-70
2023/08/18 07:29:13;;;;;;;1.00;0.50;;;14.70;75.90;;;;;;5114876;28;20267;-70
2023/08/18 07:31:42;;;;;;;0.70;0.60;;;14.60;78.30;;;;;;5114597;28;20676;-70
2023/08/18 07:34:10;;;;;;;1.73;0.50;;;14.50;81.40;;;;;;5114479;28;20199;-70
2023/08/18 07:36:39;;;;;;;3.13;0.70;;;14.50;82.70;;;;;;5114616;28;20600;-69
2023/08/18 07:39:15;;;;;;;2.60;0.60;;;14.40;85.80;;;;;;5099294;28;20553;-69
2023/08/18 07:41:43;;;;;;;2.10;0.90;;;14.40;90.10;;;;;;5109964;27;20186;-68
2023/08/18 07:44:10;;;;;;;2.63;0.50;;;14.30;90.80;;;;;;5116236;27;20190;-69
2023/08/18 07:46:38;;;;;;;0.70;0.60;;;14.20;93.30;;;;;;5113138;28;20170;-71
2023/08/18 07:49:05;;;;;;;0.50;0.50;;;14.10;94.90;;;;;;5112614;28;20799;-71
2023/08/18 07:51:32;;;;;;;0.67;0.43;;;14.00;97.10;;;;;;5113931;27;20252;-72
2023/08/18 07:54:00;;;;;;;1.17;0.53;;;13.90;98.80;;;;;;5112599;28;20419;-70
2023/08/18 07:56:27;;;;;;;0.83;0.60;;;13.90;99.90;;;;;;5112618;28;20202;-70
2023/08/18 07:58:55;;;;;;;2.03;0.73;;;13.80;99.90;;;;;;5113177;28;20208;-70
2023/08/18 08:01:22;;;;;;;1.00;0.80;;;13.70;99.90;;;;;;5113270;28;20173;-71
2023/08/18 08:03:49;;;;;;;2.07;0.80;;;13.60;99.90;;;;;;5112834;28;20673;-71
2023/08/18 08:06:17;;;;;;;0.70;0.50;;;13.50;99.90;;;;;;5112811;28;20186;-70
2023/08/18 08:08:44;;;;;;;2.07;0.50;;;13.50;99.90;;;;;;5113173;28;20176;-70
2023/08/18 08:11:12;;;;;;;0.60;0.60;;;13.40;99.90;;;;;;5112771;28;20643;-70
2023/08/18 08:13:40;;;;;;;0.60;0.60;;;13.40;99.90;;;;;;5094635;28;20218;-70
2023/08/18 08:16:07;;;;;;;0.70;0.53;;;13.40;99.90;;;;;;5112499;28;20235;-71
2023/08/18 08:18:35;;;;;;;0.80;0.60;;;13.50;99.90;;;;;;5112236;28;20244;-72
2023/08/18 08:21:02;;;;;;;1.60;0.70;;;13.50;99.90;;;;;;5112900;28;20185;-72
2023/08/18 08:23:29;;;;;;;0.50;0.50;;;13.50;99.90;;;;;;5112892;28;20645;-70
2023/08/18 08:25:57;;;;;;;0.50;0.50;;;13.50;99.90;;;;;;5112477;28;20189;-72
2023/08/18 08:28:24;;;;;;;1.60;0.60;;;13.40;99.90;;;;;;5114128;28;20182;-71
2023/08/18 08:30:51;;;;;;;0.60;0.60;;;13.50;99.90;;;;;;5113851;28;20173;-70
2023/08/18 08:33:19;;;;;;;1.63;0.83;;;13.50;99.90;;;;;;5114136;28;20304;-71
2023/08/18 08:35:46;;;;;;;1.03;0.70;;;13.50;99.90;;;;;;5094883;28;20181;-71
2023/08/18 08:38:14;;;;;;;1.10;0.90;;;13.40;99.90;;;;;;5113702;28;20279;-72
2023/08/18 08:40:42;;;;;;;1.60;0.90;;;13.30;99.90;;;;;;5113472;28;20259;-69
2023/08/18 08:43:10;;;;;;;2.63;0.70;;;13.20;99.90;;;;;;5095510;28;20510;-71
2023/08/18 08:45:39;;;;;;;1.53;0.70;;;13.20;99.90;;;;;;5113497;28;20178;-71
2023/08/18 08:48:09;;;;;;;0.80;0.70;;;13.10;99.90;;;;;;5095484;28;20189;-71
2023/08/18 08:50:41;;;;;;;1.03;0.80;;;13.10;99.90;;;;;;5113816;28;20181;-70
2023/08/18 08:53:12;;;;;;;0.90;0.80;;;13.10;99.90;;;;;;5116805;27;20719;-69
2023/08/18 08:55:41;;;;;;;1.00;0.67;;;13.20;99.90;;;;;;5118515;27;20176;-71
2023/08/18 08:58:11;;;;;;;0.83;0.83;;;13.20;99.90;;;;;;5121487;27;20255;-70
2023/08/18 09:00:38;;;;;;;0.60;0.60;;;13.10;99.90;;;;;;5113889;28;20179;-70
2023/08/18 09:03:07;;;;;;;1.00;0.90;;;13.00;99.90;;;;;;5123873;28;20201;-71
2023/08/18 09:05:35;;;;;;;1.43;0.90;;;13.00;99.90;;;;;;5121598;28;20210;-71
2023/08/18 09:08:02;;;;;;;0.90;0.70;;;12.90;99.90;;;;;;5120978;28;20266;-71
2023/08/18 09:10:33;;;;;;;0.70;0.70;;;12.90;99.90;;;;;;5090171;28;20306;-70
2023/08/18 09:13:00;;;;;;;0.60;0.60;;;13.00;99.90;;;;;;5111663;28;20216;-70
2023/08/18 09:15:28;;;;;;;0.93;0.70;;;13.10;99.90;;;;;;5112647;28;20181;-70
2023/08/18 09:17:56;;;;;;;1.50;0.60;;;13.10;99.90;;;;;;5113580;28;20189;-69
2023/08/18 09:20:24;;;;;;;1.33;0.90;;;13.00;99.90;;;;;;5112988;28;20228;-69
2023/08/18 09:22:58;;;;;;;1.33;1.00;;;13.00;99.90;;;;;;5113377;28;20285;-70
2023/08/18 09:25:25;;;;;;;1.53;0.50;;;13.00;99.90;;;;;;5113234;28;20602;-70
2023/08/18 09:27:52;;;;;;;0.63;0.60;;;13.00;99.90;;;;;;5113369;28;20258;-71
2023/08/18 09:30:21;;;;;;;0.60;0.60;;;13.00;99.90;;;;;;5113554;28;20180;-70
2023/08/18 09:32:49;;;;;;;0.60;0.60;;;13.00;99.90;;;;;;5094617;28;20216;-70
2023/08/18 09:35:21;;;;;;;0.73;0.67;;;12.90;99.90;;;;;;5112479;28;20190;-70
2023/08/18 09:37:58;;;;;;;1.17;0.70;;;12.90;99.90;;;;;;5095521;28;20182;-70
2023/08/18 09:40:29;;;;;;;0.50;0.50;;;12.80;99.90;;;;;;5112817;28;20249;-71
2023/08/18 09:42:57;;;;;;;0.50;0.50;;;12.80;99.90;;;;;;5112352;28;20243;-71
2023/08/18 09:45:28;;;;;;;0.50;0.50;;;12.80;99.90;;;;;;5116469;28;20189;-71
2023/08/18 09:47:56;;;;;;;0.57;0.50;;;12.80;99.90;;;;;;5116461;28;20565;-71
2023/08/18 09:50:29;;;;;;;2.67;0.60;;;12.70;99.90;;;;;;5116871;28;20179;-69
2023/08/18 09:52:58;;;;;;;1.57;0.60;;;12.70;99.90;;;;;;5115798;28;20228;-71
2023/08/18 09:55:32;;;;;;;0.63;0.50;;;12.70;99.90;;;;;;5098169;28;20185;-70
2023/08/18 09:58:09;;;;;;;0.40;0.40;;;12.60;99.90;;;;;;5116265;28;20177;-70
2023/08/18 10:00:40;;;;;;;0.40;0.40;;;12.60;99.90;;;;;;5116617;28;20257;-70
2023/08/18 10:03:08;;;;;;;0.93;0.50;;;12.50;99.90;;;;;;5115729;28;20181;-71
2023/08/18 10:05:36;;;;;;;0.63;0.60;;;12.40;99.90;;;;;;5125293;27;20677;-70
2023/08/18 10:08:03;;;;;;;0.57;0.57;;;12.30;99.90;;;;;;5123118;27;20179;-70
2023/08/18 10:10:31;;;;;;;0.50;0.50;;;12.30;99.90;;;;;;5116346;28;20261;-70
2023/08/18 10:12:59;;;;;;;0.50;0.50;;;12.30;99.90;;;;;;5115107;28;20439;-70
2023/08/18 10:15:28;;;;;;;0.50;0.50;;;12.20;99.90;;;;;;5097120;28;20188;-70
2023/08/18 10:17:56;;;;;;;1.03;0.50;;;12.20;99.90;;;;;;5114956;28;20186;-69
2023/08/18 10:20:27;;;;;;;0.80;0.40;;;12.10;99.90;;;;;;5115053;28;20215;-70
2023/08/18 10:22:55;;;;;;;0.50;0.50;;;12.20;99.90;;;;;;5114864;28;20179;-70
2023/08/18 10:25:29;;;;;;;0.40;0.40;;;12.10;99.90;;;;;;5115356;28;20256;-69
2023/08/18 10:27:57;;;;;;;2.30;0.60;;;12.10;99.90;;;;;;5114936;28;20249;-70
2023/08/18 10:30:27;;;;;;;0.60;0.60;;;12.10;99.90;;;;;;5115332;28;20233;-70
2023/08/18 10:33:03;;;;;;;0.60;0.60;;;12.10;99.90;;;;;;5114715;28;20226;-71
2023/08/18 10:35:31;;;;;;;0.60;0.60;;;12.10;99.90;;;;;;5108745;28;20179;-71
2023/08/18 10:38:07;;;;;;;2.73;0.83;;;12.10;99.90;;;;;;5114884;28;20184;-69
2023/08/18 10:40:36;;;;;;;1.50;0.70;;;12.20;99.90;;;;;;5115014;28;20180;-70
2023/08/18 10:43:04;;;;;;;0.70;0.70;;;12.10;99.90;;;;;;5114646;28;20278;-70
2023/08/18 10:45:32;;;;;;;3.10;0.70;;;12.10;99.90;;;;;;5114669;28;20190;-70
2023/08/18 10:48:04;;;;;;;1.17;0.80;;;12.10;99.90;;;;;;5114280;28;20187;-70
2023/08/18 10:50:36;;;;;;;1.00;0.67;;;12.10;99.90;;;;;;5124673;27;20194;-71
2023/08/18 10:53:04;;;;;;;0.70;0.70;;;12.00;99.90;;;;;;5128139;27;20215;-71
2023/08/18 10:55:32;;;;;;;1.00;0.90;;;11.90;99.90;;;;;;5115755;27;20296;-69
2023/08/18 10:57:59;;;;;;;3.07;0.90;;;11.90;99.90;;;;;;5135063;27;20173;-69
2023/08/18 11:00:32;;;;;;;0.70;0.70;;;11.90;99.90;;;;;;5134780;27;20183;-70
2023/08/18 11:02:59;;;;;;;1.70;0.90;;;11.90;99.90;;;;;;5100565;28;20183;-69
2023/08/18 11:05:30;;;;;;;3.13;0.70;;;11.80;99.90;;;;;;5114473;28;20669;-69
2023/08/18 11:07:59;;;;;;;0.60;0.60;;;11.80;99.90;;;;;;5095742;28;20232;-69
2023/08/18 11:10:26;;;;;;;0.83;0.67;;;11.90;99.90;;;;;;5095952;28;20524;-69
2023/08/18 11:12:57;;;;;;;1.43;0.70;;;11.80;99.90;;;;;;5113364;28;20362;-68
2023/08/18 11:15:25;;;;;;;1.80;0.83;;;12.00;99.90;;;;;;5113655;28;20185;-69
2023/08/18 11:17:53;;;;;;;1.00;0.60;;;12.20;99.90;;;;;;5113948;28;20185;-69
2023/08/18 11:20:21;;;;;;;0.80;0.70;;;12.30;99.90;;;;;;5113696;28;20356;-69
2023/08/18 11:22:53;;;;;;;1.40;0.67;;;12.40;99.90;;;;;;5095406;28;20180;-70
2023/08/18 11:25:22;;;;;;;4.33;0.90;;;12.50;99.90;;;;;;5114492;28;20182;-70
2023/08/18 11:27:52;;;;;;;1.00;0.70;;;12.50;99.90;;;;;;5113567;28;20183;-68
2023/08/18 11:30:20;;;;;;;1.80;0.60;;;12.50;99.90;;;;;;5113976;28;20180;-69
2023/08/18 11:32:47;;;;;;;1.33;1.03;;;12.50;99.90;;;;;;5094930;28;20213;-68
2023/08/18 11:35:18;;;;;;;1.60;0.70;;;12.50;99.90;;;;;;5113645;28;20559;-69
2023/08/18 11:37:47;;;;;;;1.40;0.60;;;12.40;99.90;;;;;;5095223;28;20513;-69
2023/08/18 11:40:19;;;;;;;1.87;0.70;;;12.40;99.90;;;;;;5113447;28;20394;-69
2023/08/18 11:42:49;;;;;;;3.50;0.80;;;12.50;99.90;;;;;;5113341;28;20655;-69
2023/08/18 11:45:24;;;;;;;2.00;0.90;;;12.50;99.90;;;;;;5113375;28;20673;-71
2023/08/18 11:48:06;;;;;;;3.60;0.80;;;12.40;99.90;;;;;;5113584;28;20367;-70
2023/08/18 11:50:39;;;;;;;2.17;0.87;;;12.40;99.90;;;;;;5112985;28;20288;-70
2023/08/18 11:53:09;;;;;;;1.53;0.70;;;12.50;99.90;;;;;;5112787;28;20223;-70
2023/08/18 11:55:45;;;;;;;2.73;0.83;;;12.50;99.90;;;;;;5113086;28;20179;-69
2023/08/18 11:58:15;;;;;;;3.47;0.80;;;12.40;99.90;;;;;;5113209;28;20172;-70
2023/08/18 12:00:44;;;;;;;1.37;0.60;;;12.40;99.90;;;;;;5094670;28;20236;-70
2023/08/18 12:03:26;;;;;;;0.80;0.60;;;12.40;99.90;;;;;;5112997;28;20219;-71
2023/08/18 12:05:58;;;;;;;2.80;0.73;;;12.30;99.90;;;;;;5113017;28;20171;-71
2023/08/18 12:08:27;;;;;;;1.40;0.70;;;12.30;99.90;;;;;;5112686;28;20189;-70
2023/08/18 12:10:57;;;;;;;2.00;0.80;;;12.30;99.90;;;;;;5113368;28;20175;-70
2023/08/18 12:13:27;;;;;;;1.03;0.70;;;12.20;99.90;;;;;;5112601;28;20738;-70
2023/08/18 12:15:55;;;;;;;4.80;0.90;;;12.30;99.90;;;;;;5112720;28;20181;-70
2023/08/18 12:18:22;;;;;;;1.43;0.60;;;12.20;99.90;;;;;;5112590;28;20191;-70
2023/08/18 12:20:50;;;;;;;1.73;0.90;;;12.20;99.90;;;;;;5112441;28;20532;-70
2023/08/18 12:23:18;;;;;;;1.53;0.80;;;12.20;99.90;;;;;;5112730;28;20194;-70
2023/08/18 12:25:46;;;;;;;0.87;0.77;;;12.20;99.90;;;;;;5112880;28;20175;-70
2023/08/18 12:28:13;;;;;;;2.67;0.63;;;12.20;99.90;;;;;;5112299;28;20186;-70
2023/08/18 12:30:40;;;;;;;2.37;0.80;;;12.20;99.90;;;;;;5112386;28;20178;-70
2023/08/18 12:33:08;;;;;;;1.90;0.73;;;12.30;99.90;;;;;;5112513;28;20215;-70
2023/08/18 12:35:35;;;;;;;1.87;1.30;;;12.20;99.90;;;;;;5111839;28;20178;-70
2023/08/18 12:38:03;;;;;;;1.43;0.70;;;12.10;99.90;;;;;;5112595;28;20295;-70
2023/08/18 12:40:30;;;;;;;1.07;0.57;;;12.20;99.90;;;;;;5112791;28;20174;-70
2023/08/18 12:42:57;;;;;;;1.97;0.87;;;12.10;99.90;;;;;;5112681;28;20224;-70
2023/08/18 12:45:25;;;;;;;0.70;0.63;;;12.10;99.90;;;;;;5112223;28;20175;-70
2023/08/18 12:47:52;;;;;;;1.13;0.80;;;12.00;99.90;;;;;;5112060;28;20226;-70
2023/08/18 12:50:21;;;;;;;1.00;0.70;;;12.00;99.90;;;;;;5112111;28;20551;-70
2023/08/18 12:52:48;;;;;;;4.13;1.37;;;12.00;99.90;;;;;;5112468;28;20673;-70
2023/08/18 12:55:16;;;;;;;1.37;0.93;;;12.00;99.90;;;;;;5112108;28;20321;-70
2023/08/18 12:57:45;;;;;;;0.90;0.70;;;12.00;99.90;;;;;;5112229;28;20183;-70
2023/08/18 13:00:13;;;;;;;3.30;0.93;;;12.00;99.90;;;;;;5112518;28;20192;-70
2023/08/18 13:02:40;;;;;;;1.67;1.00;;;12.00;99.90;;;;;;5112453;28;20193;-70
2023/08/18 13:05:07;;;;;;;2.07;1.23;;;12.00;99.90;;;;;;5111222;28;20192;-70